Time;durP1;ratioP1;P1;durP2;ratioP2;P2;SDS_P1;SDS_P2;PMS_P1;PMS_P2;Temp;Humidity;BMP_temperature;BMP_pressure;BME280_temperature;BME280_humidity;BME280_pressure;Samples;Min_cycle;Max_cycle;Signal;HPM_P1;HPM_P2
2022/10/12 00:01:26;;;;;;;98.25;33.42;;;;;;;4.45;76.17;99872.38;4959368;28;20043;-89
2022/10/12 00:03:52;;;;;;;74.85;31.20;;;;;;;4.16;75.70;99796.09;4980897;28;20093;-90
2022/10/12 00:06:22;;;;;;;79.03;31.63;;;;;;;4.54;75.02;99837.53;4954787;28;20047;-88
2022/10/12 00:08:51;;;;;;;79.85;30.88;;;;;;;4.81;74.32;99871.81;4956646;28;20039;-90
2022/10/12 00:11:21;;;;;;;84.65;28.63;;;;;;;4.30;74.17;99766.69;4971094;28;20046;-89
2022/10/12 00:13:48;;;;;;;81.10;28.63;;;;;;;4.29;73.72;99765.06;4987788;28;20039;-89
2022/10/12 00:16:16;;;;;;;79.93;29.70;;;;;;;5.01;73.39;99868.41;4971479;28;20043;-90
2022/10/12 00:18:42;;;;;;;81.88;29.33;;;;;;;4.97;73.14;99857.28;4985158;28;20286;-89
2022/10/12 00:21:13;;;;;;;82.60;29.92;;;;;;;4.73;72.37;99808.09;4950354;28;20096;-90
2022/10/12 00:23:40;;;;;;;94.85;32.13;;;;;;;4.95;71.53;99862.97;4963881;28;20050;-92
2022/10/12 00:26:10;;;;;;;79.20;29.45;;;;;;;4.90;71.77;99846.69;4963778;28;20069;-91
2022/10/12 00:28:36;;;;;;;74.03;30.80;;;;;;;4.62;70.51;99803.72;4964254;28;20038;-91
2022/10/12 00:31:14;;;;;;;72.63;30.57;;;;;;;4.82;70.29;99836.34;4980692;28;20132;-90
2022/10/12 00:33:40;;;;;;;84.20;30.45;;;;;;;4.89;70.30;99850.44;4964909;28;20061;-92
2022/10/12 00:36:17;;;;;;;73.20;29.15;;;;;;;4.97;70.06;99854.59;4950790;28;20058;-89
2022/10/12 00:38:44;;;;;;;83.68;29.88;;;;;;;4.59;68.98;99798.81;4953619;28;20085;-89
2022/10/12 00:41:13;;;;;;;71.85;29.52;;;;;;;4.59;70.44;99812.38;4953599;28;20047;-88
2022/10/12 00:43:41;;;;;;;80.72;30.58;;;;;;;4.81;70.36;99853.66;4966945;28;20031;-91
2022/10/12 00:46:15;;;;;;;80.07;28.52;;;;;;;4.89;70.48;99855.06;4967707;28;20097;-89
2022/10/12 00:48:42;;;;;;;72.63;28.92;;;;;;;4.52;69.61;99790.13;4972721;28;20042;-89
2022/10/12 00:51:09;;;;;;;86.38;27.35;;;;;;;4.22;70.55;99759.06;4952435;28;20480;-90
2022/10/12 00:53:41;;;;;;;73.30;26.33;;;;;;;4.65;70.83;99822.16;4962303;28;20043;-89
2022/10/12 00:56:16;;;;;;;64.95;25.13;;;;;;;4.48;70.96;99796.06;4983199;28;20073;-89
2022/10/12 00:58:45;;;;;;;65.28;25.60;;;;;;;4.47;70.75;99789.03;4967366;28;20047;-90
2022/10/12 01:01:11;;;;;;;66.13;25.25;;;;;;;4.60;70.46;99804.00;4967702;28;20054;-91
2022/10/12 01:03:38;;;;;;;66.32;24.38;;;;;;;4.22;70.19;99742.84;4985442;28;20058;-90
2022/10/12 01:06:06;;;;;;;64.20;24.60;;;;;;;4.48;69.91;99774.41;4973989;28;20090;-87
2022/10/12 01:08:32;;;;;;;;;;;;;;;4.85;69.35;99840.41;4998480;28;20023;-92
2022/10/12 01:10:58;;;;;;;61.07;25.00;;;;;;;4.52;70.33;99809.06;4965792;28;19910;-89
2022/10/12 01:13:25;;;;;;;64.65;26.45;;;;;;;4.68;69.60;99835.97;4965853;28;20038;-88
2022/10/12 01:15:52;;;;;;;74.60;26.70;;;;;;;4.62;68.94;99836.22;4981617;28;20042;-88
2022/10/12 01:18:27;;;;;;;79.63;29.05;;;;;;;3.94;69.15;99731.28;4959385;28;20050;-87
2022/10/12 01:21:17;;;;;;;83.78;31.33;;;;;;;4.56;68.91;99835.34;4991148;28;20047;-89
2022/10/12 01:24:05;;;;;;;82.45;30.48;;;;;;;3.91;68.88;99733.69;4976981;28;20050;-88
2022/10/12 01:26:46;;;;;;;87.75;30.85;;;;;;;4.45;68.76;99823.63;4956987;28;20042;-88
2022/10/12 01:29:49;;;;;;;78.78;29.52;;;;;;;4.41;69.88;99819.84;4974606;28;20070;-87
2022/10/12 01:32:23;;;;;;;78.35;31.88;;;;;;;4.33;68.72;99804.06;4971887;28;20054;-90
2022/10/12 01:35:06;;;;;;;84.32;30.77;;;;;;;3.99;69.02;99769.16;4955076;28;20034;-90
2022/10/12 01:38:09;;;;;;;81.72;29.20;;;;;;;4.22;69.25;99824.81;4954952;28;20045;-91
2022/10/12 01:40:38;;;;;;;69.57;28.30;;;;;;;4.26;69.45;99816.19;4955195;28;20050;-89
2022/10/12 01:43:05;;;;;;;77.22;28.60;;;;;;;3.80;69.37;99761.72;4969821;28;20045;-90
2022/10/12 01:45:31;;;;;;;72.32;28.70;;;;;;;3.53;69.33;99730.91;4950576;28;20046;-90
2022/10/12 01:47:57;;;;;;;76.38;29.00;;;;;;;3.42;69.67;99723.00;4954254;28;20047;-91
2022/10/12 01:50:30;;;;;;;83.00;30.00;;;;;;;3.34;69.56;99713.44;4988139;28;20042;-91
2022/10/12 01:53:38;;;;;;;79.53;29.48;;;;;;;4.00;69.95;99816.78;4971386;28;20038;-90
2022/10/12 01:56:15;;;;;;;85.03;28.25;;;;;;;3.83;69.22;99785.53;4943810;28;20145;-90
2022/10/12 01:58:47;;;;;;;77.95;27.75;;;;;;;3.92;70.01;99803.75;4971246;28;20051;-91
2022/10/12 02:01:39;;;;;;;70.38;27.13;;;;;;;3.83;71.17;99799.06;4954315;28;20043;-88
2022/10/12 02:04:20;;;;;;;73.57;25.00;;;;;;;4.01;71.55;99812.22;4984724;28;20039;-90
2022/10/12 02:07:00;;;;;;;78.35;27.88;;;;;;;3.76;70.59;99753.28;4984536;28;20054;-89
2022/10/12 02:09:29;;;;;;;62.80;26.10;;;;;;;4.14;70.24;99805.53;4966349;28;20166;-90
2022/10/12 02:12:01;;;;;;;66.72;26.20;;;;;;;4.00;70.57;99783.50;4950051;28;20039;-91
2022/10/12 02:14:33;;;;;;;64.20;25.40;;;;;;;4.15;70.91;99799.06;4966217;28;20042;-90
2022/10/12 02:17:04;;;;;;;69.63;24.58;;;;;;;3.86;71.00;99750.66;4967791;29;20043;-92
2022/10/12 02:19:36;;;;;;;62.47;24.25;;;;;;;4.20;71.37;99808.00;4958677;28;20070;-91
2022/10/12 02:22:32;;;;;;;63.75;24.13;;;;;;;3.55;71.51;99695.53;4967137;28;20029;-90
2022/10/12 02:25:05;;;;;;;57.67;24.80;;;;;;;3.86;71.53;99739.03;4969080;28;20039;-90
2022/10/12 02:27:35;;;;;;;63.10;24.35;;;;;;;3.65;71.49;99714.53;4965528;28;20023;-89
2022/10/12 02:30:01;;;;;;;77.75;23.50;;;;;;;4.10;71.42;99772.75;4981643;28;20027;-89
2022/10/12 02:32:41;;;;;;;60.17;22.70;;;;;;;4.10;71.05;99766.53;4993540;28;20026;-91
2022/10/12 02:35:08;;;;;;;77.30;23.83;;;;;;;4.33;70.89;99790.53;5000916;28;20111;-90
2022/10/12 02:37:45;;;;;;;64.85;23.55;;;;;;;4.34;70.52;99800.28;4984084;28;20027;-89
2022/10/12 02:40:30;;;;;;;;;;;;;;;4.34;70.81;99791.34;4984612;28;20031;-90
2022/10/12 02:43:04;;;;;;;73.30;22.15;;;;;;;4.06;71.59;99760.03;4984124;28;19921;-91
2022/10/12 02:45:33;;;;;;;63.97;23.48;;;;;;;4.08;72.21;99756.00;4985264;28;20304;-92
2022/10/12 02:48:00;;;;;;;69.55;24.80;;;;;;;3.93;70.62;99724.22;4979392;28;20041;-89
2022/10/12 02:50:28;;;;;;;83.15;27.90;;;;;;;3.85;70.24;99727.41;4977956;28;20081;-89
2022/10/12 02:52:56;;;;;;;74.38;27.25;;;;;;;3.92;70.58;99744.25;4961423;28;20023;-92
2022/10/12 02:55:22;;;;;;;79.80;30.92;;;;;;;3.93;70.44;99736.94;4961184;28;20053;-91
2022/10/12 02:57:49;;;;;;;81.68;29.83;;;;;;;3.85;70.11;99738.22;4962312;28;20042;-89
2022/10/12 03:00:16;;;;;;;80.10;28.55;;;;;;;3.91;70.24;99764.25;4960112;28;20047;-91
2022/10/12 03:02:42;;;;;;;76.63;29.00;;;;;;;3.55;70.63;99702.84;4959469;28;20042;-91
2022/10/12 03:05:09;;;;;;;86.30;28.23;;;;;;;3.52;70.44;99699.56;4974324;28;20141;-89
2022/10/12 03:07:35;;;;;;;71.78;26.02;;;;;;;3.71;70.95;99735.16;4958298;28;20034;-90
2022/10/12 03:10:01;;;;;;;72.47;25.50;;;;;;;4.16;71.47;99798.78;4957085;28;20101;-91
2022/10/12 03:12:27;;;;;;;76.22;26.33;;;;;;;4.23;71.52;99809.41;4947176;28;20584;-91
2022/10/12 03:14:53;;;;;;;71.75;25.92;;;;;;;3.63;70.85;99697.75;4944212;28;20038;-89
2022/10/12 03:17:19;;;;;;;76.70;25.58;;;;;;;3.70;70.38;99714.56;4960758;28;20038;-90
2022/10/12 03:19:45;;;;;;;64.35;23.23;;;;;;;3.82;70.38;99721.72;4960806;28;20524;-90
2022/10/12 03:22:11;;;;;;;76.63;24.85;;;;;;;4.11;70.64;99784.44;4959423;28;20125;-90
2022/10/12 03:24:37;;;;;;;72.03;25.45;;;;;;;4.22;70.01;99802.38;4943131;28;20066;-90
2022/10/12 03:27:03;;;;;;;71.55;25.23;;;;;;;3.86;70.34;99741.75;4942117;28;20507;-90
2022/10/12 03:29:29;;;;;;;63.15;25.05;;;;;;;4.16;69.22;99800.69;4943231;28;20050;-91
2022/10/12 03:31:55;;;;;;;79.25;26.10;;;;;;;4.05;69.80;99801.69;4943728;28;20038;-91
2022/10/12 03:34:22;;;;;;;82.50;27.05;;;;;;;3.90;69.92;99788.84;4943768;28;20496;-90
2022/10/12 03:36:48;;;;;;;79.82;27.70;;;;;;;3.69;69.67;99764.31;4959995;28;20038;-91
2022/10/12 03:39:14;;;;;;;82.25;27.45;;;;;;;3.40;69.96;99736.75;4943768;28;20043;-91
2022/10/12 03:41:40;;;;;;;84.60;28.13;;;;;;;3.24;70.11;99734.94;4945067;28;20151;-91
2022/10/12 03:44:06;;;;;;;72.57;27.42;;;;;;;2.81;70.89;99685.31;4967595;28;20137;-90
2022/10/12 03:46:33;;;;;;;85.88;28.48;;;;;;;3.24;71.23;99761.97;4991344;28;20053;-91
2022/10/12 03:49:00;;;;;;;86.65;27.42;;;;;;;2.96;71.45;99723.31;4949163;28;20054;-90
2022/10/12 03:51:27;;;;;;;83.88;28.67;;;;;;;2.90;71.63;99731.59;4943819;28;20039;-91
2022/10/12 03:53:53;;;;;;;76.28;26.38;;;;;;;3.40;71.96;99812.41;4959225;28;20097;-90
2022/10/12 03:56:19;;;;;;;77.70;28.35;;;;;;;3.36;71.76;99802.38;4942406;28;20470;-91
2022/10/12 03:58:46;;;;;;;70.60;27.92;;;;;;;3.17;71.61;99778.38;4936975;29;20050;-91
2022/10/12 04:01:13;;;;;;;68.90;26.95;;;;;;;3.18;71.66;99776.47;4937577;29;20520;-90
2022/10/12 04:03:39;;;;;;;88.18;27.90;;;;;;;3.10;71.94;99758.84;4937924;29;20043;-89
2022/10/12 04:06:05;;;;;;;79.82;27.98;;;;;;;3.31;71.85;99786.91;4937347;29;20413;-91
2022/10/12 04:08:31;;;;;;;72.85;29.67;;;;;;;3.32;72.35;99779.63;4937455;29;20074;-91
2022/10/12 04:10:58;;;;;;;81.82;27.17;;;;;;;2.96;72.15;99712.50;4954046;29;20142;-91
2022/10/12 04:13:24;;;;;;;;;;;;;;;3.50;71.40;99793.59;4938551;29;20050;-89
2022/10/12 04:15:50;;;;;;;86.00;28.23;;;;;;;3.24;71.48;99768.19;4937346;29;20425;-88
2022/10/12 04:18:19;;;;;;;90.15;28.58;;;;;;;3.11;71.61;99743.44;4936796;29;20417;-89
2022/10/12 04:20:48;;;;;;;87.45;27.40;;;;;;;3.19;72.04;99759.22;4907970;29;20070;-89
2022/10/12 04:23:15;;;;;;;86.15;27.88;;;;;;;3.40;72.25;99798.88;4936132;29;20047;-92
2022/10/12 04:25:41;;;;;;;95.03;30.02;;;;;;;3.19;72.34;99778.13;4936917;29;20441;-89
2022/10/12 04:28:07;;;;;;;99.60;30.25;;;;;;;3.35;72.90;99795.34;4918285;29;20070;-90
2022/10/12 04:30:33;;;;;;;93.10;30.90;;;;;;;2.96;72.70;99739.50;4935333;29;20047;-90
2022/10/12 04:32:59;;;;;;;89.03;31.92;;;;;;;3.38;72.61;99789.41;4886361;29;20059;-91
2022/10/12 04:35:25;;;;;;;89.22;31.15;;;;;;;3.23;72.78;99753.06;4917059;29;20048;-91
2022/10/12 04:37:51;;;;;;;83.05;29.25;;;;;;;3.37;72.51;99769.66;4914448;29;20040;-90
2022/10/12 04:40:17;;;;;;;94.63;31.58;;;;;;;3.30;72.95;99758.25;4935945;29;20043;-89
2022/10/12 04:42:43;;;;;;;83.55;29.30;;;;;;;3.63;73.32;99797.78;4933194;29;20043;-88
2022/10/12 04:45:09;;;;;;;96.18;31.33;;;;;;;3.65;73.40;99789.44;4932726;29;20054;-88
2022/10/12 04:47:35;;;;;;;91.63;30.20;;;;;;;3.70;73.16;99784.06;4932646;29;20043;-88
2022/10/12 04:50:03;;;;;;;100.90;29.73;;;;;;;3.87;72.81;99792.06;4932662;29;20051;-88
2022/10/12 04:52:29;;;;;;;83.88;29.30;;;;;;;3.90;72.69;99789.66;4932687;29;20048;-88
2022/10/12 04:54:55;;;;;;;88.38;30.98;;;;;;;4.06;72.71;99787.88;4932713;29;20060;-88
2022/10/12 04:57:21;;;;;;;85.88;30.55;;;;;;;4.24;72.81;99797.53;4937091;29;20131;-89
2022/10/12 04:59:47;;;;;;;86.82;29.05;;;;;;;4.26;72.49;99795.34;4943218;28;20093;-88
2022/10/12 05:02:13;;;;;;;81.80;30.67;;;;;;;4.22;72.89;99769.88;4961706;28;20039;-89
2022/10/12 05:04:39;;;;;;;90.90;29.38;;;;;;;4.40;72.98;99771.34;4976300;28;20038;-87
2022/10/12 05:07:05;;;;;;;91.22;31.80;;;;;;;4.65;72.94;99790.47;4977803;28;20042;-91
2022/10/12 05:09:31;;;;;;;75.13;27.15;;;;;;;4.87;71.79;99811.19;4963887;28;20496;-90
2022/10/12 05:11:57;;;;;;;81.68;27.63;;;;;;;4.72;71.57;99784.81;4995553;28;20042;-87
2022/10/12 05:14:23;;;;;;;79.57;29.13;;;;;;;4.81;71.93;99758.06;4988086;28;20042;-89
2022/10/12 05:16:49;;;;;;;83.07;28.77;;;;;;;5.32;71.77;99812.44;4959813;28;20035;-89
2022/10/12 05:19:15;;;;;;;93.55;28.10;;;;;;;5.29;71.06;99799.41;4959398;28;20054;-87
2022/10/12 05:21:42;;;;;;;93.53;28.98;;;;;;;5.43;71.39;99784.31;4976791;28;20451;-89
2022/10/12 05:24:09;;;;;;;98.82;29.60;;;;;;;5.69;70.31;99804.13;4958938;28;20055;-89
2022/10/12 05:26:35;;;;;;;95.13;28.73;;;;;;;5.67;70.11;99776.47;4959384;28;20051;-89
2022/10/12 05:29:01;;;;;;;87.47;31.30;;;;;;;5.87;68.66;99805.53;4975719;28;20047;-89
2022/10/12 05:31:27;;;;;;;99.10;31.50;;;;;;;5.79;69.51;99774.31;4976875;28;20058;-91
2022/10/12 05:33:53;;;;;;;99.40;32.58;;;;;;;5.83;69.80;99748.28;4960802;28;20122;-89
2022/10/12 05:36:19;;;;;;;102.55;33.67;;;;;;;6.28;69.78;99784.66;4978685;28;20046;-94
2022/10/12 05:38:45;;;;;;;87.13;32.53;;;;;;;6.56;69.83;99796.84;4945437;28;20147;-89
2022/10/12 05:41:12;;;;;;;109.28;36.17;;;;;;;6.71;69.84;99801.41;4961470;28;20043;-90
2022/10/12 05:43:38;;;;;;;113.93;37.13;;;;;;;6.63;69.11;99785.69;4975320;28;20109;-89
2022/10/12 05:46:05;;;;;;;112.75;36.75;;;;;;;6.73;68.67;99787.59;4978503;28;20559;-90
2022/10/12 05:48:32;;;;;;;105.93;34.35;;;;;;;6.91;68.26;99814.13;4961602;28;20046;-88
2022/10/12 05:50:58;;;;;;;101.10;33.15;;;;;;;7.07;68.50;99804.84;4960449;28;20061;-92
2022/10/12 05:53:24;;;;;;;106.63;35.40;;;;;;;7.15;68.19;99795.31;4959567;28;20047;-92
2022/10/12 05:56:10;;;;;;;98.03;33.27;;;;;;;7.30;68.47;99810.75;4958799;28;20046;-89
2022/10/12 05:58:36;;;;;;;82.83;30.67;;;;;;;7.27;67.94;99774.03;4940277;29;20572;-90
2022/10/12 06:01:11;;;;;;;80.65;29.92;;;;;;;7.54;67.96;99803.53;4972613;28;20082;-90
2022/10/12 06:03:37;;;;;;;85.00;29.45;;;;;;;7.54;67.67;99781.75;4978121;28;20114;-88
2022/10/12 06:06:05;;;;;;;93.78;28.20;;;;;;;7.39;67.44;99735.63;4957917;29;20046;-91
2022/10/12 06:08:32;;;;;;;79.32;25.52;;;;;;;7.59;67.00;99742.03;4940983;29;20050;-92
2022/10/12 06:10:58;;;;;;;83.07;26.75;;;;;;;7.95;66.87;99777.97;4944566;28;20042;-93
2022/10/12 06:13:25;;;;;;;74.13;26.42;;;;;;;8.04;66.36;99780.88;4977615;28;20042;-86
2022/10/12 06:15:51;;;;;;;65.40;26.83;;;;;;;8.04;66.59;99767.28;4977576;28;20408;-87
2022/10/12 06:18:20;;;;;;;68.95;24.75;;;;;;;8.26;66.39;99797.59;4960053;28;20039;-88
2022/10/12 06:20:52;;;;;;;67.95;25.83;;;;;;;8.30;65.78;99776.84;4980808;28;20062;-84
2022/10/12 06:23:19;;;;;;;55.83;20.88;;;;;;;8.35;64.11;99771.38;4975025;28;20133;-85
2022/10/12 06:25:47;;;;;;;73.10;22.08;;;;;;;8.57;64.59;99786.44;4974129;28;20050;-87
2022/10/12 06:28:14;;;;;;;48.97;19.83;;;;;;;8.53;63.50;99766.31;4956452;28;20544;-86
2022/10/12 06:30:41;;;;;;;56.28;20.42;;;;;;;8.62;63.39;99765.41;4942273;28;20043;-91
2022/10/12 06:33:07;;;;;;;56.40;20.95;;;;;;;8.81;63.32;99786.47;4946844;28;20102;-94
2022/10/12 06:35:35;;;;;;;68.30;20.90;;;;;;;8.86;63.52;99786.41;4978564;28;20049;-93
2022/10/12 06:38:01;;;;;;;55.75;20.00;;;;;;;8.69;63.05;99759.59;4979348;28;20609;-94
2022/10/12 06:40:28;;;;;;;50.88;19.58;;;;;;;8.97;63.30;99785.16;4978085;28;20083;-93
2022/10/12 08:40:59;;;;;;;34.80;12.77;;;;;;;12.71;47.86;99730.28;5059881;28;20787;-88
2022/10/12 08:43:42;;;;;;;35.95;13.20;;;;;;;13.02;47.74;99741.22;5036549;28;20041;-92
2022/10/12 08:46:08;;;;;;;44.75;12.07;;;;;;;13.23;49.30;99724.94;5034488;28;20065;-92
2022/10/12 08:48:46;;;;;;;34.20;11.85;;;;;;;13.38;48.10;99710.78;5013275;28;20146;-90
2022/10/12 08:51:17;;;;;;;35.65;10.23;;;;;;;13.74;47.61;99733.56;5047892;28;20053;-89
2022/10/12 08:53:59;;;;;;;23.70;7.85;;;;;;;13.80;45.54;99735.81;5079469;28;20118;-92
2022/10/12 08:56:26;;;;;;;19.30;7.05;;;;;;;13.90;45.83;99731.94;5024428;28;20046;-92
2022/10/12 08:58:53;;;;;;;13.90;4.78;;;;;;;13.91;44.56;99732.75;5045603;28;20048;-90
2022/10/12 09:01:26;;;;;;;8.43;3.63;;;;;;;13.76;42.74;99714.84;5044900;28;20037;-91
2022/10/12 09:04:14;;;;;;;13.48;3.50;;;;;;;13.85;42.51;99729.38;5040060;28;20037;-92
2022/10/12 09:07:04;;;;;;;11.32;3.42;;;;;;;13.91;41.46;99727.25;5044373;28;20045;-87
2022/10/12 09:10:13;;;;;;;18.17;5.00;;;;;;;14.02;44.37;99734.03;5027827;28;20095;-90
2022/10/12 09:12:53;;;;;;;6.45;3.15;;;;;;;13.75;41.36;99694.78;5049517;28;20041;-91
2022/10/12 09:15:25;;;;;;;18.10;3.30;;;;;;;13.68;43.24;99683.50;5046434;28;20053;-88
2022/10/12 09:17:55;;;;;;;10.30;4.10;;;;;;;13.74;42.87;99667.63;5044850;28;20037;-91
2022/10/12 09:20:21;;;;;;;24.05;4.28;;;;;;;14.14;42.45;99723.19;5046187;28;20053;-89
2022/10/12 09:22:58;;;;;;;18.98;3.90;;;;;;;14.14;42.48;99725.94;5047247;28;20037;-89
2022/10/12 09:25:27;;;;;;;8.50;3.33;;;;;;;13.80;42.38;99680.88;5041184;28;20576;-89
2022/10/12 09:28:20;;;;;;;9.00;2.72;;;;;;;14.06;42.96;99726.75;5038504;28;20041;-88
2022/10/12 09:31:33;;;;;;;11.95;2.80;;;;;;;13.83;42.28;99695.91;5043603;28;20053;-89
2022/10/12 09:34:06;;;;;;;13.35;3.17;;;;;;;13.51;42.12;99651.34;5024975;28;20410;-87
2022/10/12 09:36:38;;;;;;;7.82;2.90;;;;;;;13.55;42.54;99677.03;5040851;28;20033;-89
2022/10/12 09:39:34;;;;;;;4.75;2.50;;;;;;;13.67;41.85;99684.59;5024340;28;20052;-89
2022/10/12 09:42:01;;;;;;;8.05;2.70;;;;;;;13.63;41.84;99676.22;5012831;28;20045;-85
2022/10/12 09:44:45;;;;;;;10.95;3.83;;;;;;;13.96;41.59;99716.09;5031002;28;20115;-90
2022/10/12 09:47:22;;;;;;;12.43;3.70;;;;;;;14.02;42.62;99720.31;5030210;28;20570;-86
2022/10/12 09:49:49;;;;;;;;;;;;;;;14.09;43.22;99717.84;5030394;28;20141;-89
2022/10/12 09:52:19;;;;;;;8.63;3.35;;;;;;;13.79;42.35;99654.53;5023673;28;19916;-91
2022/10/12 09:54:59;;;;;;;7.80;3.00;;;;;;;14.07;42.14;99698.13;5031945;28;20414;-93
2022/10/12 09:57:38;;;;;;;31.20;5.25;;;;;;;13.94;42.74;99683.47;5016693;28;20033;-90
2022/10/12 10:00:23;;;;;;;20.77;6.38;;;;;;;13.92;44.30;99702.22;5015383;28;20132;-93
2022/10/12 10:02:50;;;;;;;38.05;8.88;;;;;;;13.76;44.89;99685.41;5035313;28;20111;-91
2022/10/12 10:05:35;;;;;;;44.60;7.93;;;;;;;14.11;44.75;99726.59;5017884;28;20485;-89
2022/10/12 10:08:14;;;;;;;49.47;8.52;;;;;;;14.04;45.41;99729.03;5033998;28;20045;-92
2022/10/12 10:10:52;;;;;;;56.70;8.35;;;;;;;13.91;46.32;99692.34;5016674;28;20037;-91
2022/10/12 10:13:20;;;;;;;20.85;7.68;;;;;;;13.79;44.04;99682.00;5008130;28;20069;-92
2022/10/12 10:16:00;;;;;;;16.70;6.07;;;;;;;14.06;44.40;99737.75;5017521;28;20568;-93
2022/10/12 10:18:47;;;;;;;13.85;4.88;;;;;;;13.82;44.00;99708.84;5029897;28;20038;-93
2022/10/12 10:21:23;;;;;;;24.13;9.40;;;;;;;13.60;43.91;99674.09;5000308;28;20132;-92
2022/10/12 10:23:56;;;;;;;19.50;7.70;;;;;;;13.60;44.55;99690.59;5016520;28;20489;-93
2022/10/12 10:26:27;;;;;;;17.50;8.18;;;;;;;13.71;44.44;99696.59;5000355;28;20046;-93
2022/10/12 10:29:15;;;;;;;35.15;12.57;;;;;;;13.74;44.28;99698.69;5002676;28;20596;-91
2022/10/12 10:31:45;;;;;;;30.42;8.60;;;;;;;13.84;45.22;99703.00;5016413;28;20087;-92
2022/10/12 10:34:21;;;;;;;63.15;21.27;;;;;;;14.01;45.70;99748.94;5033731;28;20037;-89
2022/10/12 10:36:53;;;;;;;39.30;12.77;;;;;;;13.85;45.13;99715.63;5032866;28;20050;-90
2022/10/12 10:39:26;;;;;;;25.73;9.30;;;;;;;14.02;45.50;99742.28;5000157;28;20060;-93
2022/10/12 10:41:56;;;;;;;18.42;7.47;;;;;;;13.67;45.61;99681.84;5016181;28;20037;-91
2022/10/12 10:44:31;;;;;;;28.05;8.20;;;;;;;13.97;45.14;99723.22;5032545;28;20033;-92
2022/10/12 10:47:03;;;;;;;58.80;10.10;;;;;;;14.06;45.11;99719.31;5055246;28;20038;-94
2022/10/12 10:49:40;;;;;;;16.80;6.40;;;;;;;14.30;45.65;99745.47;5034158;28;20041;-94
2022/10/12 10:52:18;;;;;;;28.48;6.47;;;;;;;14.13;45.74;99718.81;5050185;28;20128;-91
2022/10/12 10:54:45;;;;;;;15.98;5.43;;;;;;;14.20;44.42;99745.81;5017028;28;20033;-91
2022/10/12 10:57:22;;;;;;;24.75;6.03;;;;;;;13.80;45.04;99667.13;5015415;28;20041;-90
2022/10/12 11:00:01;;;;;;;17.40;5.55;;;;;;;14.03;45.51;99697.16;5048264;28;20073;-91
2022/10/12 11:08:24;;;;;;;21.73;6.22;;;;;;;13.76;44.93;99701.09;4958498;28;20133;-93
2022/10/12 11:11:14;;;;;;;28.05;6.43;;;;;;;13.64;45.75;99679.75;4931884;28;20508;-93
2022/10/12 11:13:54;;;;;;;15.18;6.35;;;;;;;13.70;45.97;99683.97;4925818;28;20050;-94
2022/10/12 11:16:52;;;;;;;37.08;7.80;;;;;;;14.05;45.79;99717.72;4942112;28;20050;-92
2022/10/12 11:19:44;;;;;;;39.30;7.63;;;;;;;14.16;46.32;99745.66;4957316;28;20047;-93
2022/10/12 11:22:19;;;;;;;21.98;6.40;;;;;;;13.95;45.35;99720.81;4927159;28;20104;-92
2022/10/12 11:25:13;;;;;;;31.83;7.13;;;;;;;14.06;45.79;99737.75;4934384;28;20038;-93
2022/10/12 11:27:43;;;;;;;24.98;6.63;;;;;;;13.67;46.23;99676.38;4958357;28;20047;-92
2022/10/12 11:30:16;;;;;;;23.02;7.30;;;;;;;14.13;46.00;99740.81;4927170;28;20043;-91
2022/10/12 11:33:05;;;;;;;29.60;6.93;;;;;;;13.81;45.74;99729.22;4918619;29;20055;-92
2022/10/12 11:35:39;;;;;;;61.22;8.27;;;;;;;13.50;45.97;99685.41;4902104;29;20502;-92
2022/10/12 11:38:15;;;;;;;94.70;10.20;;;;;;;13.49;46.54;99719.53;4917770;29;20135;-91
2022/10/12 11:40:45;;;;;;;;;;;;;;;13.60;46.90;99755.72;4903491;29;20046;-90
2022/10/12 11:43:48;;;;;;;40.55;7.97;;;;;;;13.59;47.41;99754.91;4902904;29;19945;-95
2022/10/12 11:46:18;;;;;;;28.17;6.25;;;;;;;13.40;47.47;99768.94;4843798;29;20572;-93
2022/10/12 11:49:46;;;;;;;40.85;8.13;;;;;;;13.23;48.52;99776.31;4859051;29;20578;-93
2022/10/12 11:52:12;;;;;;;37.28;6.82;;;;;;;12.87;49.40;99747.13;4813209;29;20053;-94
2022/10/12 11:54:47;;;;;;;51.97;7.82;;;;;;;13.00;49.96;99773.66;4857514;29;20101;-92
2022/10/12 11:57:23;;;;;;;32.60;7.28;;;;;;;12.62;50.08;99729.47;4858931;29;20061;-90
2022/10/12 11:59:57;;;;;;;44.58;7.97;;;;;;;12.54;50.15;99708.28;4828535;29;20572;-91
2022/10/12 12:02:41;;;;;;;39.90;7.38;;;;;;;12.75;50.82;99753.25;4828485;29;20045;-89
2022/10/12 12:05:15;;;;;;;38.30;10.05;;;;;;;12.88;51.15;99759.72;4828696;29;20045;-92
2022/10/12 12:07:43;;;;;;;51.53;8.88;;;;;;;13.13;50.14;99786.44;4830396;29;20046;-91
2022/10/12 12:10:24;;;;;;;36.53;6.90;;;;;;;12.96;50.48;99800.13;4844741;29;20069;-92
2022/10/12 12:13:16;;;;;;;40.92;9.00;;;;;;;12.92;51.36;99791.72;4856012;29;20140;-91
2022/10/12 12:16:02;;;;;;;48.75;8.10;;;;;;;12.88;51.02;99796.22;4840633;29;20050;-92
2022/10/12 12:21:08;;;;;;;71.78;10.45;;;;;;;12.34;51.86;99740.59;4825904;29;20547;-93
2022/10/12 12:23:42;;;;;;;71.22;9.93;;;;;;;12.85;51.70;99801.53;4877406;29;20063;-93
2022/10/12 12:26:09;;;;;;;68.40;10.13;;;;;;;12.89;51.91;99797.84;4887964;29;20036;-93
2022/10/12 12:28:41;;;;;;;56.03;10.60;;;;;;;12.67;52.87;99756.75;4920559;29;20062;-91
2022/10/12 12:31:27;;;;;;;40.42;9.75;;;;;;;12.72;52.54;99775.00;4919795;29;20485;-93
2022/10/12 12:34:15;;;;;;;30.08;8.85;;;;;;;12.10;52.88;99726.44;4884794;29;20050;-92
2022/10/12 12:36:44;;;;;;;52.70;10.18;;;;;;;12.13;53.20;99731.31;4902500;29;20067;-91
2022/10/12 12:39:30;;;;;;;35.95;9.68;;;;;;;12.34;53.49;99769.94;4918019;29;20044;-91
2022/10/12 12:42:02;;;;;;;65.32;10.75;;;;;;;12.46;54.25;99768.25;4918524;29;20070;-92
2022/10/12 12:44:37;;;;;;;65.97;12.20;;;;;;;12.60;53.82;99798.34;4921298;29;20095;-91
2022/10/12 12:47:03;;;;;;;46.13;10.75;;;;;;;12.55;54.38;99797.66;4904769;29;20050;-90
2022/10/12 12:49:49;;;;;;;54.55;9.20;;;;;;;12.18;54.46;99747.59;4899843;29;20035;-92
2022/10/12 12:52:28;;;;;;;27.48;8.43;;;;;;;11.82;55.54;99743.00;4888116;29;20039;-93
2022/10/12 12:55:27;;;;;;;25.98;8.07;;;;;;;12.22;56.55;99806.97;4903194;29;20115;-91
2022/10/12 12:58:03;;;;;;;28.02;8.70;;;;;;;12.14;56.81;99810.44;4882827;29;20236;-92
2022/10/12 13:00:45;;;;;;;40.65;11.68;;;;;;;11.97;57.10;99783.72;4887363;29;20048;-92
2022/10/12 13:03:30;;;;;;;34.55;8.52;;;;;;;12.07;57.68;99823.78;4887517;29;20059;-94
2022/10/12 13:06:03;;;;;;;40.10;8.93;;;;;;;12.11;57.08;99818.50;4918397;29;20046;-92
2022/10/12 13:09:00;;;;;;;35.83;9.60;;;;;;;11.90;57.64;99783.34;4920304;29;20052;-94
2022/10/12 13:11:42;;;;;;;32.47;10.27;;;;;;;11.78;57.98;99785.78;4883180;29;20067;-91
2022/10/12 13:14:14;;;;;;;22.58;8.15;;;;;;;11.98;58.25;99829.19;4923526;29;20130;-94
2022/10/12 13:17:02;;;;;;;15.52;7.40;;;;;;;11.97;59.69;99796.63;4889215;29;20150;-92
2022/10/12 13:19:35;;;;;;;30.70;8.73;;;;;;;11.90;57.97;99788.03;4914053;29;20146;-91
2022/10/12 13:22:15;;;;;;;25.50;7.05;;;;;;;12.01;57.61;99810.50;4936550;29;20043;-89
2022/10/12 13:24:49;;;;;;;22.67;7.30;;;;;;;11.88;57.67;99807.50;4929711;29;20032;-92
2022/10/12 13:27:34;;;;;;;37.05;8.40;;;;;;;11.66;58.40;99800.06;4932976;29;20055;-91
2022/10/12 13:30:09;;;;;;;36.10;8.27;;;;;;;11.89;58.80;99833.81;4886807;29;20104;-92
2022/10/12 13:33:01;;;;;;;44.13;9.27;;;;;;;11.83;58.45;99829.53;4931338;29;20055;-91
2022/10/12 13:35:40;;;;;;;76.05;10.20;;;;;;;11.69;58.46;99831.50;4938745;29;20154;-90
2022/10/12 13:38:27;;;;;;;47.45;9.20;;;;;;;11.37;59.03;99811.34;4940198;29;20066;-93
2022/10/12 13:41:24;;;;;;;45.53;8.02;;;;;;;11.11;59.31;99778.22;4921901;29;20047;-93
2022/10/12 13:43:57;;;;;;;25.10;6.38;;;;;;;11.13;59.94;99805.28;4866728;29;20041;-88
2022/10/12 13:46:47;;;;;;;29.08;6.07;;;;;;;11.22;59.75;99825.34;4900076;29;20056;-94
2022/10/12 13:49:24;;;;;;;46.17;7.47;;;;;;;11.33;59.97;99848.66;4865865;29;20053;-92
2022/10/12 13:51:59;;;;;;;53.65;8.57;;;;;;;10.84;60.61;99791.91;4860175;29;20528;-92
2022/10/12 13:54:36;;;;;;;29.17;8.43;;;;;;;11.11;60.82;99852.09;4847859;29;20057;-92
2022/10/12 13:57:27;;;;;;;23.75;5.60;;;;;;;11.14;60.88;99850.69;4841438;29;20041;-91
2022/10/12 14:00:07;;;;;;;24.08;5.95;;;;;;;10.88;61.21;99832.03;4859655;29;20068;-90
2022/10/12 14:02:33;;;;;;;23.02;6.63;;;;;;;11.02;61.51;99848.44;4828988;29;20530;-92